Time;durP1;ratioP1;P1;durP2;ratioP2;P2;SDS_P1;SDS_P2;PMS_P1;PMS_P2;Temp;Humidity;BMP_temperature;BMP_pressure;BME280_temperature;BME280_humidity;BME280_pressure;Samples;Min_cycle;Max_cycle;Signal;HPM_P1;HPM_P2
2021/01/08 00:02:23;;;;;;;23.70;11.23;;;1.30;99.70;;;;;;5033624;28;20798;-68
2021/01/08 00:04:49;;;;;;;21.13;9.20;;;1.30;99.70;;;;;;5033162;28;20479;-69
2021/01/08 00:07:16;;;;;;;25.10;10.90;;;1.40;99.70;;;;;;5033371;28;20440;-69
2021/01/08 00:09:42;;;;;;;22.47;11.70;;;1.30;99.70;;;;;;5033780;28;20547;-69
2021/01/08 00:12:09;;;;;;;23.63;10.27;;;1.30;99.70;;;;;;5033631;28;20987;-68
2021/01/08 00:14:36;;;;;;;21.90;11.07;;;1.30;99.70;;;;;;5033544;28;21008;-67
2021/01/08 00:17:02;;;;;;;24.97;11.17;;;1.30;99.70;;;;;;5033204;28;20444;-67
2021/01/08 00:19:28;;;;;;;22.70;10.63;;;1.30;99.70;;;;;;5033575;28;20946;-68
2021/01/08 00:21:55;;;;;;;22.83;10.70;;;1.40;99.70;;;;;;5033416;28;20545;-67
2021/01/08 00:24:21;;;;;;;23.00;11.20;;;1.40;99.70;;;;;;5033354;28;21004;-68
2021/01/08 00:26:48;;;;;;;20.93;10.20;;;1.50;99.70;;;;;;5033031;28;20867;-67
2021/01/08 00:29:16;;;;;;;23.40;10.57;;;1.50;99.70;;;;;;5033316;28;21181;-69
2021/01/08 00:31:44;;;;;;;22.47;9.87;;;1.40;99.70;;;;;;5033124;28;20452;-69
2021/01/08 00:34:12;;;;;;;24.47;11.47;;;1.60;99.70;;;;;;5033295;28;20768;-69
2021/01/08 00:36:46;;;;;;;23.00;10.93;;;1.50;99.70;;;;;;5033135;28;20448;-68
2021/01/08 00:39:12;;;;;;;25.97;11.47;;;1.40;99.70;;;;;;5033282;28;20443;-70
2021/01/08 00:41:38;;;;;;;24.07;10.90;;;1.40;99.70;;;;;;5033022;28;20492;-67
2021/01/08 00:44:05;;;;;;;20.40;10.40;;;1.40;99.70;;;;;;5032946;28;20467;-67
2021/01/08 00:46:34;;;;;;;27.60;11.23;;;1.40;99.70;;;;;;5033174;28;20444;-68
2021/01/08 00:49:00;;;;;;;21.97;11.63;;;1.40;99.70;;;;;;5032490;28;20938;-66
2021/01/08 00:51:27;;;;;;;22.40;10.33;;;1.40;99.70;;;;;;5032933;28;20440;-67
2021/01/08 00:53:53;;;;;;;24.80;11.47;;;1.30;99.70;;;;;;5032718;28;20836;-66
2021/01/08 00:56:21;;;;;;;23.17;11.20;;;1.50;99.70;;;;;;5034189;28;20448;-68
2021/01/08 00:58:47;;;;;;;26.07;12.00;;;1.40;99.70;;;;;;5032471;28;20854;-68
2021/01/08 01:01:14;;;;;;;23.70;11.27;;;1.50;99.70;;;;;;5032576;28;20883;-69
2021/01/08 01:03:41;;;;;;;26.40;12.20;;;1.40;99.70;;;;;;5032623;28;20859;-68
2021/01/08 01:06:08;;;;;;;24.90;11.20;;;1.50;99.70;;;;;;5031964;28;20625;-69
2021/01/08 01:08:34;;;;;;;22.07;11.47;;;1.30;99.70;;;;;;5032224;28;20441;-67
2021/01/08 01:11:01;;;;;;;26.33;11.93;;;1.20;99.70;;;;;;5032627;28;20444;-67
2021/01/08 01:13:27;;;;;;;21.47;10.50;;;1.40;99.70;;;;;;5032516;28;20448;-67
2021/01/08 01:15:54;;;;;;;23.00;10.63;;;1.40;99.70;;;;;;5032355;28;20519;-67
2021/01/08 01:18:21;;;;;;;21.60;11.10;;;1.40;99.70;;;;;;5032037;28;20453;-67
2021/01/08 01:20:48;;;;;;;21.33;10.60;;;1.40;99.70;;;;;;5032406;28;20487;-66
2021/01/08 01:23:15;;;;;;;22.13;10.23;;;1.50;99.70;;;;;;5032337;28;20797;-66
2021/01/08 01:25:41;;;;;;;23.33;10.77;;;1.60;99.70;;;;;;5032564;28;21012;-67
2021/01/08 01:28:07;;;;;;;24.20;10.40;;;1.40;99.70;;;;;;5031829;28;20946;-67
2021/01/08 01:30:33;;;;;;;20.80;10.30;;;1.40;99.70;;;;;;5032179;28;20455;-66
2021/01/08 01:33:00;;;;;;;22.40;10.43;;;1.30;99.70;;;;;;5032162;28;20539;-66
2021/01/08 01:35:26;;;;;;;24.97;10.90;;;1.50;99.70;;;;;;5032071;28;20475;-66
2021/01/08 01:37:53;;;;;;;23.00;9.60;;;1.50;99.70;;;;;;5031932;28;20871;-68
2021/01/08 01:40:20;;;;;;;23.57;10.63;;;1.40;99.70;;;;;;5032112;28;20449;-67
2021/01/08 01:42:46;;;;;;;26.07;11.27;;;1.40;99.70;;;;;;5032055;28;20453;-67
2021/01/08 01:45:13;;;;;;;25.10;11.70;;;1.40;99.70;;;;;;5032076;28;20468;-67
2021/01/08 01:47:40;;;;;;;24.43;11.10;;;1.60;99.70;;;;;;5031678;28;21059;-67
2021/01/08 01:50:07;;;;;;;24.37;11.03;;;1.70;99.70;;;;;;5032042;28;20790;-66
2021/01/08 01:52:35;;;;;;;24.40;10.80;;;1.80;99.70;;;;;;5031946;28;20441;-67
2021/01/08 01:55:02;;;;;;;22.63;10.60;;;1.50;99.70;;;;;;5030927;28;20472;-68
2021/01/08 01:57:29;;;;;;;23.23;11.37;;;1.30;99.70;;;;;;5031464;28;20448;-66
2021/01/08 01:59:56;;;;;;;21.90;10.53;;;1.30;99.70;;;;;;5031581;28;20445;-68
2021/01/08 02:02:25;;;;;;;21.53;10.20;;;1.10;99.70;;;;;;5031717;28;20539;-67
2021/01/08 02:04:54;;;;;;;26.67;10.93;;;1.30;99.70;;;;;;5030789;28;20473;-66
2021/01/08 02:07:22;;;;;;;24.37;10.53;;;1.20;99.70;;;;;;5031320;28;20518;-66
2021/01/08 02:09:49;;;;;;;24.83;10.80;;;1.00;99.70;;;;;;5031791;28;20449;-66
2021/01/08 02:12:18;;;;;;;26.30;11.47;;;0.90;99.70;;;;;;5031576;28;20444;-68
2021/01/08 02:14:45;;;;;;;22.97;10.27;;;0.90;99.70;;;;;;5031589;28;20460;-66
2021/01/08 02:17:14;;;;;;;25.07;11.73;;;1.00;99.70;;;;;;5031456;28;20491;-69
2021/01/08 02:19:44;;;;;;;23.40;10.73;;;1.00;99.70;;;;;;5031623;28;20452;-66
2021/01/08 02:22:16;;;;;;;23.13;11.67;;;0.90;99.70;;;;;;5031388;28;20506;-67
2021/01/08 02:24:47;;;;;;;24.70;11.07;;;0.90;99.70;;;;;;5031132;28;20484;-66
2021/01/08 02:27:14;;;;;;;22.27;10.17;;;1.00;99.70;;;;;;5030910;28;20514;-66
2021/01/08 02:29:41;;;;;;;25.37;11.87;;;1.00;99.70;;;;;;5031146;28;20444;-66
2021/01/08 02:32:08;;;;;;;23.10;10.70;;;1.00;99.70;;;;;;5031296;28;20444;-67
2021/01/08 02:34:35;;;;;;;26.57;11.50;;;0.90;99.70;;;;;;5030936;28;20473;-67
2021/01/08 02:37:02;;;;;;;25.23;11.47;;;0.70;99.70;;;;;;5030729;28;20448;-66
2021/01/08 02:39:29;;;;;;;25.80;10.87;;;0.80;99.70;;;;;;5031035;28;20444;-67
2021/01/08 02:41:56;;;;;;;25.77;11.60;;;0.80;99.70;;;;;;5030974;28;20488;-66
2021/01/08 02:44:24;;;;;;;23.40;11.60;;;0.80;99.70;;;;;;5030748;28;20460;-68
2021/01/08 02:46:50;;;;;;;21.60;10.60;;;1.00;99.70;;;;;;5030468;28;20455;-67
2021/01/08 02:49:16;;;;;;;22.50;10.10;;;1.00;99.70;;;;;;5030844;28;20447;-66
2021/01/08 02:51:43;;;;;;;31.53;12.03;;;1.00;99.70;;;;;;5030772;28;20445;-66
2021/01/08 02:54:10;;;;;;;24.27;10.70;;;0.90;99.70;;;;;;5030517;28;20487;-67
2021/01/08 02:56:40;;;;;;;23.70;10.40;;;0.90;99.70;;;;;;5030635;28;20942;-67
2021/01/08 02:59:08;;;;;;;25.93;11.80;;;0.90;99.70;;;;;;5030374;28;20468;-68
2021/01/08 03:01:36;;;;;;;22.57;10.53;;;0.90;99.70;;;;;;5030508;28;20542;-66
2021/01/08 03:04:02;;;;;;;24.80;11.37;;;1.00;99.70;;;;;;5030398;28;20455;-68
2021/01/08 03:06:30;;;;;;;22.83;10.90;;;0.90;99.70;;;;;;5029333;28;20463;-67
2021/01/08 03:08:56;;;;;;;27.33;11.63;;;0.90;99.70;;;;;;5030069;28;20471;-66
2021/01/08 03:11:23;;;;;;;27.83;11.87;;;0.80;99.70;;;;;;5030389;28;20445;-67
2021/01/08 03:13:50;;;;;;;26.07;10.90;;;0.80;99.70;;;;;;5030339;28;20459;-67
2021/01/08 03:16:17;;;;;;;28.77;11.90;;;0.80;99.70;;;;;;5030307;28;20449;-68
2021/01/08 03:18:45;;;;;;;24.43;11.30;;;0.80;99.70;;;;;;5030106;28;20564;-67
2021/01/08 03:21:11;;;;;;;24.93;11.20;;;0.80;99.70;;;;;;5030273;28;20476;-68
2021/01/08 03:23:37;;;;;;;27.13;11.97;;;0.80;99.70;;;;;;5030386;28;20444;-67
2021/01/08 03:26:03;;;;;;;27.07;10.80;;;0.80;99.70;;;;;;5030402;28;20487;-67
2021/01/08 03:28:29;;;;;;;24.57;11.23;;;0.80;99.70;;;;;;5029913;28;20448;-66
2021/01/08 03:30:56;;;;;;;24.60;10.50;;;0.80;99.70;;;;;;5030105;28;20448;-66
2021/01/08 03:33:22;;;;;;;23.67;10.03;;;0.80;99.70;;;;;;5030367;28;20440;-67
2021/01/08 03:35:49;;;;;;;23.53;10.40;;;0.80;99.70;;;;;;5030091;28;20501;-67
2021/01/08 03:38:15;;;;;;;25.73;11.00;;;0.90;99.70;;;;;;5029797;28;20444;-67
2021/01/08 03:40:41;;;;;;;22.03;10.20;;;1.00;99.70;;;;;;5030031;28;20493;-67
2021/01/08 03:43:08;;;;;;;23.80;10.43;;;0.90;99.70;;;;;;5030171;28;20444;-68
2021/01/08 03:45:34;;;;;;;26.63;11.50;;;0.80;99.70;;;;;;5029957;28;20496;-67
2021/01/08 03:48:00;;;;;;;25.53;10.07;;;0.80;99.70;;;;;;5029627;28;20448;-67
2021/01/08 03:50:26;;;;;;;23.07;10.00;;;1.00;99.70;;;;;;5030023;28;20449;-67
2021/01/08 03:52:54;;;;;;;22.00;9.90;;;0.90;99.70;;;;;;5030085;28;20440;-67
2021/01/08 03:55:20;;;;;;;25.37;10.40;;;0.90;99.70;;;;;;5029770;28;20477;-69
2021/01/08 03:57:46;;;;;;;25.27;11.27;;;0.80;99.70;;;;;;5029648;28;20449;-67
2021/01/08 04:00:13;;;;;;;23.93;10.57;;;0.90;99.70;;;;;;5029910;28;20449;-68
2021/01/08 04:02:39;;;;;;;22.60;9.87;;;0.70;99.70;;;;;;5030006;28;20484;-68
2021/01/08 04:05:07;;;;;;;25.73;10.90;;;0.80;99.70;;;;;;5029038;28;20836;-67
2021/01/08 04:07:33;;;;;;;24.93;11.13;;;0.80;99.70;;;;;;5029582;28;20502;-67
2021/01/08 04:10:00;;;;;;;24.00;10.03;;;0.70;99.70;;;;;;5029786;28;20498;-66
2021/01/08 04:12:26;;;;;;;21.90;10.03;;;0.70;99.70;;;;;;5029948;28;20441;-67
2021/01/08 04:14:52;;;;;;;24.80;10.17;;;0.80;99.70;;;;;;5029751;28;20476;-68
2021/01/08 04:17:19;;;;;;;21.90;9.80;;;0.70;99.70;;;;;;5030712;28;20489;-67
2021/01/08 04:19:45;;;;;;;23.87;10.37;;;0.70;99.70;;;;;;5033675;28;20482;-67
2021/01/08 04:22:11;;;;;;;22.17;10.10;;;0.70;99.70;;;;;;5033341;28;21024;-66
2021/01/08 04:24:37;;;;;;;22.13;10.20;;;0.70;99.70;;;;;;5033336;28;20460;-66
2021/01/08 04:27:04;;;;;;;24.30;10.47;;;0.70;99.70;;;;;;5032893;28;20515;-66
2021/01/08 04:29:31;;;;;;;20.30;9.60;;;0.70;99.70;;;;;;5033693;28;20440;-67
2021/01/08 04:31:57;;;;;;;20.40;9.50;;;0.70;99.70;;;;;;5025108;28;20494;-67
2021/01/08 04:34:23;;;;;;;26.53;10.80;;;0.70;99.70;;;;;;5033195;28;20472;-67
2021/01/08 04:36:49;;;;;;;23.10;9.80;;;0.70;99.70;;;;;;5032727;28;20448;-66
2021/01/08 04:39:15;;;;;;;21.33;9.67;;;0.70;99.70;;;;;;5033136;28;21160;-67
2021/01/08 04:41:42;;;;;;;25.23;11.23;;;0.70;99.70;;;;;;5032905;28;20480;-67
2021/01/08 04:44:09;;;;;;;23.97;10.60;;;0.70;99.70;;;;;;5032985;28;20827;-69
2021/01/08 04:46:36;;;;;;;22.87;9.60;;;0.70;99.70;;;;;;5032856;28;20440;-67
2021/01/08 04:49:05;;;;;;;22.40;10.20;;;0.80;99.70;;;;;;5032720;28;20455;-68
2021/01/08 04:51:32;;;;;;;22.67;9.53;;;0.80;99.70;;;;;;5032999;28;20441;-66
2021/01/08 04:53:59;;;;;;;25.97;10.27;;;0.70;99.70;;;;;;5032883;28;20794;-66
2021/01/08 04:56:26;;;;;;;22.30;10.07;;;0.70;99.70;;;;;;5032845;28;20467;-68
2021/01/08 04:58:53;;;;;;;19.03;9.20;;;0.70;99.70;;;;;;5032473;28;20455;-68
2021/01/08 05:01:20;;;;;;;27.10;9.80;;;0.70;99.70;;;;;;5032869;28;20480;-67
2021/01/08 05:03:47;;;;;;;21.57;9.73;;;0.60;99.70;;;;;;5032684;28;20506;-67
2021/01/08 05:06:14;;;;;;;24.53;10.63;;;0.70;99.70;;;;;;5032058;28;20457;-67
2021/01/08 05:08:40;;;;;;;24.93;9.97;;;0.70;99.70;;;;;;5032374;28;20444;-67
2021/01/08 05:11:24;;;;;;;21.10;9.93;;;0.70;99.70;;;;;;5032494;28;20445;-67
2021/01/08 05:13:53;;;;;;;21.27;9.90;;;0.70;99.70;;;;;;5032618;28;20433;-68
2021/01/08 05:16:21;;;;;;;23.60;10.37;;;0.70;99.70;;;;;;5032554;28;20468;-68
2021/01/08 05:18:48;;;;;;;23.97;9.50;;;0.70;99.70;;;;;;5032192;28;20437;-66
2021/01/08 05:21:15;;;;;;;24.40;10.40;;;0.70;99.70;;;;;;5032192;28;20493;-67
2021/01/08 05:23:41;;;;;;;20.70;9.53;;;0.70;99.70;;;;;;5032267;28;20449;-68
2021/01/08 05:26:07;;;;;;;23.13;9.50;;;0.80;99.70;;;;;;5032138;28;20492;-66
2021/01/08 05:28:33;;;;;;;20.83;8.93;;;0.80;99.70;;;;;;5030950;28;20515;-67
2021/01/08 05:31:05;;;;;;;20.50;9.20;;;0.80;99.70;;;;;;5032179;28;20449;-66
2021/01/08 05:33:33;;;;;;;25.20;9.77;;;0.90;99.70;;;;;;5032202;28;20448;-67
2021/01/08 05:36:00;;;;;;;19.00;8.33;;;0.80;99.70;;;;;;5031976;28;20468;-66
2021/01/08 05:38:28;;;;;;;16.67;7.83;;;0.70;99.70;;;;;;5031611;28;20448;-67
2021/01/08 05:41:01;;;;;;;17.93;8.20;;;0.70;99.70;;;;;;5032080;28;20476;-67
2021/01/08 05:43:28;;;;;;;19.17;9.00;;;0.70;99.70;;;;;;5031954;28;20449;-67
2021/01/08 05:46:07;;;;;;;17.37;8.67;;;0.70;99.70;;;;;;5031839;28;20468;-67
2021/01/08 05:48:36;;;;;;;17.70;8.20;;;0.90;99.70;;;;;;5031493;28;20480;-67
2021/01/08 05:51:04;;;;;;;17.33;8.10;;;0.90;99.70;;;;;;5031862;28;20445;-66
2021/01/08 05:53:32;;;;;;;18.23;8.37;;;0.80;99.70;;;;;;5031710;28;20448;-66
2021/01/08 05:55:58;;;;;;;20.53;8.90;;;0.70;99.70;;;;;;5031618;28;20472;-66
2021/01/08 05:58:25;;;;;;;17.67;8.07;;;0.70;99.70;;;;;;5031337;28;20874;-67
2021/01/08 06:00:58;;;;;;;17.97;8.27;;;0.70;99.70;;;;;;5031617;28;20835;-70
2021/01/08 06:03:26;;;;;;;20.57;8.77;;;0.70;99.70;;;;;;5031536;28;20507;-68
2021/01/08 06:05:54;;;;;;;20.77;8.27;;;0.70;99.70;;;;;;5030736;28;20480;-69
2021/01/08 06:08:25;;;;;;;17.20;8.07;;;0.80;99.70;;;;;;5031057;28;20451;-68
2021/01/08 06:10:54;;;;;;;17.30;7.90;;;0.80;99.70;;;;;;5031385;28;20535;-69
2021/01/08 06:13:22;;;;;;;16.07;7.80;;;1.00;99.70;;;;;;5031342;28;20487;-70
2021/01/08 06:15:51;;;;;;;17.60;7.40;;;1.00;99.70;;;;;;5031309;28;20457;-69
2021/01/08 06:18:20;;;;;;;18.80;7.50;;;0.90;99.70;;;;;;5030911;28;20452;-68
2021/01/08 06:20:47;;;;;;;16.23;7.60;;;1.00;99.70;;;;;;5031275;28;20484;-69
2021/01/08 06:23:39;;;;;;;16.53;7.73;;;1.00;99.70;;;;;;5031235;28;20460;-68
2021/01/08 06:26:07;;;;;;;16.27;7.43;;;1.00;99.70;;;;;;5024187;28;20464;-68
2021/01/08 06:28:38;;;;;;;17.60;8.10;;;1.00;99.70;;;;;;5030950;28;20526;-69
2021/01/08 06:31:11;;;;;;;16.57;7.27;;;1.00;99.70;;;;;;5031310;28;20456;-70
2021/01/08 06:33:39;;;;;;;15.07;7.50;;;0.90;99.70;;;;;;5031033;28;20463;-69
2021/01/08 06:36:18;;;;;;;19.00;7.97;;;1.30;99.70;;;;;;5031143;28;20467;-69
2021/01/08 06:38:50;;;;;;;16.17;7.50;;;1.10;99.70;;;;;;5030644;28;20440;-70
2021/01/08 06:41:17;;;;;;;17.43;7.20;;;1.10;99.70;;;;;;5030823;28;20491;-69
2021/01/08 06:43:50;;;;;;;12.57;6.90;;;1.30;99.70;;;;;;5030951;28;20858;-69
2021/01/08 06:46:31;;;;;;;17.50;7.47;;;1.10;99.70;;;;;;5030986;28;20440;-71
2021/01/08 06:48:59;;;;;;;15.50;6.90;;;1.10;99.70;;;;;;5030435;28;20527;-68
2021/01/08 06:51:30;;;;;;;16.50;6.50;;;1.20;99.70;;;;;;5030896;28;20495;-69
2021/01/08 06:53:59;;;;;;;14.30;7.57;;;1.30;99.70;;;;;;5030599;28;20498;-71
2021/01/08 06:56:33;;;;;;;13.90;6.67;;;1.30;99.70;;;;;;5032043;28;20444;-67
2021/01/08 06:59:00;;;;;;;14.63;6.67;;;1.10;99.70;;;;;;5022469;28;20459;-68
2021/01/08 07:01:52;;;;;;;17.30;7.20;;;1.10;99.70;;;;;;5030560;28;20724;-67
2021/01/08 07:04:20;;;;;;;13.47;7.00;;;1.20;99.70;;;;;;5029849;28;20465;-66
2021/01/08 07:06:46;;;;;;;14.20;6.90;;;1.10;99.70;;;;;;5030438;28;20445;-65
2021/01/08 07:09:13;;;;;;;14.63;6.73;;;1.20;99.70;;;;;;5030628;28;20903;-67
2021/01/08 07:11:40;;;;;;;13.63;6.70;;;1.30;99.70;;;;;;5030912;28;21115;-67
2021/01/08 07:14:14;;;;;;;13.87;6.67;;;1.10;99.70;;;;;;5030657;28;21051;-67
2021/01/08 07:16:43;;;;;;;14.83;6.30;;;1.00;99.70;;;;;;5030680;28;20944;-64
2021/01/08 07:19:11;;;;;;;13.00;6.20;;;1.20;99.70;;;;;;5030337;28;20534;-67
2021/01/08 07:21:43;;;;;;;16.53;7.80;;;1.50;99.70;;;;;;5030304;28;20786;-67
2021/01/08 07:24:11;;;;;;;14.37;6.50;;;1.50;99.70;;;;;;5030314;28;20919;-67
2021/01/08 07:26:39;;;;;;;13.20;6.60;;;1.60;99.70;;;;;;5030304;28;20444;-69
2021/01/08 07:29:06;;;;;;;15.20;6.90;;;1.40;99.70;;;;;;5029881;28;20820;-67
2021/01/08 07:31:33;;;;;;;14.00;7.07;;;1.40;99.70;;;;;;5030298;28;20882;-66
2021/01/08 07:34:01;;;;;;;12.13;5.97;;;1.50;99.70;;;;;;5029998;28;20836;-69
2021/01/08 07:36:29;;;;;;;14.73;6.70;;;1.30;99.70;;;;;;5030088;28;21000;-67
2021/01/08 07:38:56;;;;;;;12.13;6.20;;;1.40;99.70;;;;;;5029751;28;20440;-66
2021/01/08 07:41:36;;;;;;;14.93;7.17;;;1.50;99.70;;;;;;5030214;28;20534;-66
2021/01/08 07:44:05;;;;;;;13.37;6.47;;;1.50;99.70;;;;;;5022700;28;20452;-67
2021/01/08 07:46:33;;;;;;;16.37;7.17;;;1.40;99.70;;;;;;5030175;28;20455;-66
2021/01/08 07:49:00;;;;;;;15.77;7.70;;;1.30;99.70;;;;;;5021804;28;20863;-66
2021/01/08 07:51:45;;;;;;;18.27;7.27;;;1.20;99.70;;;;;;5030071;28;20830;-68
2021/01/08 07:54:11;;;;;;;19.80;7.57;;;1.40;99.70;;;;;;5033744;28;20503;-68
2021/01/08 07:57:05;;;;;;;14.50;6.83;;;1.40;99.70;;;;;;5033999;28;20440;-67
2021/01/08 07:59:32;;;;;;;15.63;7.57;;;1.20;99.70;;;;;;5033861;28;20441;-67
2021/01/08 08:01:59;;;;;;;13.07;7.00;;;1.10;99.70;;;;;;5033767;28;20480;-69
2021/01/08 08:04:28;;;;;;;15.77;7.70;;;1.40;99.70;;;;;;5033246;28;20610;-68
2021/01/08 08:06:56;;;;;;;13.70;6.60;;;1.40;99.70;;;;;;5033385;28;20459;-69
2021/01/08 08:09:23;;;;;;;17.57;8.17;;;1.40;99.70;;;;;;5033674;28;20474;-67
2021/01/08 08:11:49;;;;;;;16.63;7.60;;;1.50;99.70;;;;;;5033706;28;20441;-69
2021/01/08 08:14:17;;;;;;;17.53;7.53;;;1.50;99.70;;;;;;5033406;28;20893;-67
2021/01/08 08:16:44;;;;;;;16.97;7.50;;;1.60;99.70;;;;;;5033347;28;20468;-70
2021/01/08 08:19:11;;;;;;;14.20;7.27;;;1.60;99.70;;;;;;5033433;28;20444;-69
2021/01/08 08:21:44;;;;;;;16.27;7.80;;;1.60;99.70;;;;;;5033283;28;20484;-68
2021/01/08 08:24:13;;;;;;;15.53;7.73;;;1.50;99.70;;;;;;5033432;28;20464;-67
2021/01/08 08:26:40;;;;;;;16.40;7.77;;;1.50;99.70;;;;;;5033481;28;20452;-67
2021/01/08 08:29:08;;;;;;;15.47;7.40;;;1.50;99.70;;;;;;5033299;28;20452;-67
2021/01/08 08:31:36;;;;;;;20.43;7.70;;;1.80;99.70;;;;;;5033434;28;20440;-68
2021/01/08 08:34:04;;;;;;;15.37;7.23;;;1.80;99.70;;;;;;5033280;28;20456;-68
2021/01/08 08:36:31;;;;;;;15.90;7.60;;;1.70;99.70;;;;;;5033170;28;20452;-68
2021/01/08 08:38:59;;;;;;;15.37;7.27;;;1.70;99.70;;;;;;5032766;28;20445;-68
2021/01/08 08:41:27;;;;;;;16.50;8.00;;;1.50;99.70;;;;;;5032957;28;20486;-68
2021/01/08 08:44:06;;;;;;;14.23;6.60;;;1.70;99.70;;;;;;5032576;28;20471;-68
2021/01/08 08:46:49;;;;;;;15.13;7.50;;;1.80;99.70;;;;;;5030887;28;20448;-67
2021/01/08 08:49:18;;;;;;;16.40;8.10;;;1.70;99.70;;;;;;5031062;28;20498;-67
2021/01/08 08:51:46;;;;;;;12.60;6.90;;;1.60;99.70;;;;;;5033023;28;20447;-66
2021/01/08 08:54:13;;;;;;;13.33;7.33;;;1.70;99.70;;;;;;5032854;28;20499;-67
2021/01/08 08:56:41;;;;;;;15.43;7.03;;;1.80;99.70;;;;;;5032835;28;20457;-67
2021/01/08 08:59:07;;;;;;;15.17;7.20;;;1.50;99.70;;;;;;5032672;28;20444;-66
2021/01/08 09:01:43;;;;;;;13.57;6.77;;;1.50;99.70;;;;;;5027320;28;20484;-68
2021/01/08 09:04:10;;;;;;;14.43;7.47;;;1.60;99.70;;;;;;5012320;28;20514;-66
2021/01/08 09:06:41;;;;;;;15.23;6.97;;;1.50;99.70;;;;;;5014339;28;20512;-66
2021/01/08 09:09:16;;;;;;;12.97;6.83;;;1.50;99.70;;;;;;5012794;28;20861;-67
2021/01/08 09:11:53;;;;;;;12.73;6.70;;;1.50;99.70;;;;;;5012747;28;20445;-68
2021/01/08 09:14:21;;;;;;;14.57;7.13;;;1.60;99.70;;;;;;5012503;28;20519;-68
2021/01/08 09:16:51;;;;;;;14.93;7.23;;;1.50;99.70;;;;;;5012215;28;20450;-67
2021/01/08 09:19:25;;;;;;;16.10;7.60;;;1.50;99.70;;;;;;5012575;28;20473;-69
2021/01/08 09:21:53;;;;;;;13.43;7.07;;;1.60;99.70;;;;;;5012506;28;20488;-67
2021/01/08 09:24:23;;;;;;;15.13;7.17;;;1.50;99.70;;;;;;5012375;28;20846;-67
2021/01/08 09:26:52;;;;;;;13.70;6.80;;;1.60;99.70;;;;;;5012230;28;20442;-67
2021/01/08 09:29:28;;;;;;;14.93;7.30;;;1.70;99.70;;;;;;5010791;28;20548;-69
2021/01/08 09:31:55;;;;;;;15.67;7.23;;;1.70;99.70;;;;;;5011456;28;20528;-67
2021/01/08 09:34:23;;;;;;;14.20;7.47;;;1.60;99.70;;;;;;5011283;28;20882;-66
2021/01/08 09:36:50;;;;;;;12.77;7.37;;;1.70;99.70;;;;;;5010836;28;20454;-68
2021/01/08 09:39:18;;;;;;;14.20;7.60;;;1.80;99.70;;;;;;5011491;28;20536;-67
2021/01/08 09:41:45;;;;;;;13.70;7.43;;;1.90;99.70;;;;;;5011255;28;20485;-67
2021/01/08 09:44:14;;;;;;;16.60;8.00;;;1.80;99.70;;;;;;5011230;28;20466;-66
2021/01/08 09:46:51;;;;;;;13.70;7.27;;;1.90;99.70;;;;;;5011296;28;20450;-73
2021/01/08 09:49:18;;;;;;;15.30;7.07;;;2.00;99.70;;;;;;5011293;28;20449;-67
2021/01/08 09:51:44;;;;;;;15.20;7.47;;;1.80;99.70;;;;;;5011313;28;20819;-66
2021/01/08 09:54:10;;;;;;;12.90;6.77;;;1.80;99.70;;;;;;5010940;28;20772;-69
2021/01/08 09:56:37;;;;;;;15.30;7.07;;;1.90;99.70;;;;;;5011081;28;20601;-67
2021/01/08 09:59:14;;;;;;;13.33;6.77;;;1.90;99.70;;;;;;5023861;28;20449;-68
2021/01/08 10:01:53;;;;;;;12.10;6.80;;;1.70;99.70;;;;;;5030211;28;20472;-68
2021/01/08 10:04:30;;;;;;;15.53;7.30;;;1.80;99.70;;;;;;5029010;28;20507;-67
2021/01/08 10:07:01;;;;;;;15.77;7.90;;;1.80;99.70;;;;;;5016220;28;20823;-68
2021/01/08 10:09:28;;;;;;;15.03;6.97;;;1.90;99.70;;;;;;5025433;28;20472;-68
2021/01/08 10:11:59;;;;;;;16.23;7.80;;;1.80;99.70;;;;;;5025604;28;20441;-69
2021/01/08 10:14:32;;;;;;;14.47;7.27;;;1.90;99.70;;;;;;5026777;28;20507;-67
2021/01/08 10:17:17;;;;;;;14.13;7.93;;;1.70;99.70;;;;;;5021690;28;20441;-67
2021/01/08 10:19:45;;;;;;;17.67;7.80;;;1.70;99.70;;;;;;5029773;28;20439;-69
2021/01/08 10:22:11;;;;;;;20.73;8.30;;;1.70;99.70;;;;;;5030500;28;20476;-69
2021/01/08 10:24:37;;;;;;;14.77;7.60;;;1.90;99.70;;;;;;5029745;28;20464;-67
2021/01/08 10:27:05;;;;;;;14.07;7.37;;;1.80;99.70;;;;;;5010339;28;20445;-67
2021/01/08 10:29:33;;;;;;;13.20;7.20;;;1.90;99.70;;;;;;5010678;28;20446;-67
2021/01/08 10:32:05;;;;;;;13.07;6.97;;;1.80;99.70;;;;;;5012684;28;20469;-69
2021/01/08 10:34:39;;;;;;;15.30;7.43;;;1.90;99.70;;;;;;5019537;28;20462;-68
2021/01/08 10:37:06;;;;;;;11.63;6.20;;;2.00;99.70;;;;;;5010508;28;20438;-67
2021/01/08 10:39:32;;;;;;;14.37;6.47;;;2.30;99.70;;;;;;5013889;28;20520;-66
2021/01/08 10:41:58;;;;;;;11.13;6.00;;;2.10;99.70;;;;;;5029772;28;20476;-67
2021/01/08 10:44:28;;;;;;;11.43;6.30;;;2.00;99.70;;;;;;5029822;28;21000;-67
2021/01/08 10:46:54;;;;;;;11.70;6.03;;;2.00;99.70;;;;;;5029399;28;20809;-67
2021/01/08 10:49:22;;;;;;;12.10;6.27;;;2.10;99.70;;;;;;5029814;28;20869;-68
2021/01/08 10:51:48;;;;;;;8.13;4.80;;;2.20;99.70;;;;;;5029952;28;20933;-68
2021/01/08 10:54:17;;;;;;;8.87;5.00;;;2.20;99.70;;;;;;5029901;28;20900;-67
2021/01/08 10:56:44;;;;;;;8.10;4.30;;;2.20;99.70;;;;;;5029575;28;20452;-69
2021/01/08 10:59:12;;;;;;;8.67;4.00;;;2.00;99.70;;;;;;5029072;28;20447;-67
2021/01/08 11:01:40;;;;;;;6.70;3.90;;;2.00;99.70;;;;;;5024987;28;20485;-66
2021/01/08 11:04:07;;;;;;;8.53;4.00;;;2.00;99.70;;;;;;5009380;28;21005;-66
2021/01/08 11:06:33;;;;;;;6.90;4.03;;;2.10;99.70;;;;;;5009652;28;20500;-65
2021/01/08 11:08:59;;;;;;;8.07;4.03;;;2.30;99.70;;;;;;5009715;28;20442;-65
2021/01/08 11:11:25;;;;;;;7.47;4.23;;;2.50;99.70;;;;;;5023184;28;20443;-65
2021/01/08 11:13:51;;;;;;;9.70;5.07;;;2.40;99.70;;;;;;5029351;28;20452;-65
2021/01/08 11:16:18;;;;;;;8.20;4.37;;;2.40;99.70;;;;;;5029523;28;20869;-68
2021/01/08 11:18:46;;;;;;;9.30;5.23;;;2.40;99.70;;;;;;5025474;28;20449;-70
2021/01/08 11:21:17;;;;;;;8.77;4.73;;;2.20;99.70;;;;;;5016999;28;20868;-69
2021/01/08 11:23:44;;;;;;;8.83;4.60;;;2.20;99.70;;;;;;5009883;28;20965;-66
2021/01/08 11:26:10;;;;;;;8.83;4.93;;;2.40;99.70;;;;;;5015907;28;20878;-68
2021/01/08 11:28:36;;;;;;;13.40;6.53;;;2.30;99.70;;;;;;5028813;28;20456;-65
2021/01/08 11:31:02;;;;;;;9.67;4.97;;;2.20;99.70;;;;;;5023831;28;20477;-70
2021/01/08 11:33:29;;;;;;;8.77;5.00;;;2.30;99.70;;;;;;5009883;28;20449;-68
2021/01/08 11:35:56;;;;;;;11.20;5.63;;;2.30;99.70;;;;;;5013510;28;20465;-67
2021/01/08 11:38:22;;;;;;;12.33;5.93;;;2.30;99.70;;;;;;5019274;28;20475;-63
2021/01/08 11:40:48;;;;;;;15.30;7.40;;;2.30;99.70;;;;;;5021305;28;20750;-66
2021/01/08 11:43:15;;;;;;;10.67;6.00;;;2.30;99.70;;;;;;5009922;28;20476;-69
2021/01/08 11:45:42;;;;;;;10.30;5.30;;;2.40;99.70;;;;;;5024462;28;20526;-68
2021/01/08 11:48:09;;;;;;;9.00;4.97;;;2.60;99.70;;;;;;5029404;28;20465;-67
2021/01/08 11:50:35;;;;;;;8.40;5.20;;;2.80;99.70;;;;;;5029832;28;20448;-69
2021/01/08 11:53:02;;;;;;;11.10;4.97;;;2.70;99.70;;;;;;5029640;28;20498;-68
2021/01/08 11:55:28;;;;;;;7.43;4.60;;;2.90;99.70;;;;;;5029652;28;21398;-66
2021/01/08 11:57:55;;;;;;;8.27;4.47;;;2.90;99.70;;;;;;5024800;28;20449;-67
2021/01/08 12:00:22;;;;;;;6.73;4.50;;;3.00;99.70;;;;;;5018481;28;20505;-66
2021/01/08 12:02:48;;;;;;;9.30;5.10;;;2.80;99.70;;;;;;5010248;28;21034;-66
2021/01/08 12:05:14;;;;;;;8.90;5.07;;;2.90;99.70;;;;;;5009251;28;20496;-66
2021/01/08 12:07:41;;;;;;;15.07;8.77;;;2.70;99.70;;;;;;5010243;28;20437;-66
2021/01/08 12:10:09;;;;;;;9.60;4.80;;;2.80;99.70;;;;;;5009785;28;20441;-65
2021/01/08 12:12:36;;;;;;;8.00;4.57;;;2.70;99.70;;;;;;5011411;28;20492;-65
2021/01/08 12:15:03;;;;;;;8.60;4.60;;;2.60;99.70;;;;;;5027283;28;20511;-66
2021/01/08 12:17:30;;;;;;;8.27;4.40;;;2.70;99.70;;;;;;5015890;28;20445;-68
2021/01/08 12:19:57;;;;;;;8.40;4.27;;;2.50;99.70;;;;;;5012136;28;20448;-66
2021/01/08 12:22:23;;;;;;;8.80;4.30;;;2.50;99.70;;;;;;5028646;28;20487;-66
2021/01/08 12:24:49;;;;;;;7.57;4.07;;;2.70;99.70;;;;;;5029174;28;20449;-64
2021/01/08 12:27:17;;;;;;;7.07;4.10;;;2.80;99.70;;;;;;5027814;28;20453;-68
2021/01/08 12:29:44;;;;;;;9.60;4.07;;;2.50;99.70;;;;;;5019161;28;20453;-69
2021/01/08 12:32:10;;;;;;;8.20;4.40;;;2.50;99.70;;;;;;5018752;28;20457;-67
2021/01/08 12:34:36;;;;;;;7.47;4.43;;;2.40;99.70;;;;;;5014077;28;20476;-67
2021/01/08 12:37:04;;;;;;;7.67;4.67;;;2.30;99.70;;;;;;5013728;28;20522;-65
2021/01/08 12:39:33;;;;;;;9.50;4.37;;;2.20;99.70;;;;;;5029991;28;20445;-69
2021/01/08 12:42:00;;;;;;;9.30;4.30;;;2.20;99.70;;;;;;5015895;28;20508;-65
2021/01/08 12:44:27;;;;;;;9.23;5.00;;;2.30;99.70;;;;;;5010361;28;20480;-66
2021/01/08 12:46:57;;;;;;;9.43;4.50;;;2.10;99.70;;;;;;5018788;28;20893;-64
2021/01/08 12:49:23;;;;;;;9.00;4.40;;;2.00;99.70;;;;;;5009632;28;20460;-66
2021/01/08 12:51:50;;;;;;;7.70;4.07;;;2.10;99.70;;;;;;5012711;28;20446;-66